Could not load TAF data: FEEDPACKAGE_TAF: could not Find TAF for station: KRNT
Bewolkt met lichte regen
Bewolkt met lichte regen
Bewolkt met lichte regen
Bewolkt met lichte regen
Bewolkt met lichte regen
Bewolkt met lichte regen
Bewolkt
(°C)
10°
10°
11°
11°
11°
11°
12°
12°
12°
12°
13°
13°
14°
14°
(°C)
10°
10°
11°
Z
Z
Z
Z
ZZW
ZZW
ZZW
(km/h)
13-23
13-24
13-24
13-25
14-25
14-26
14-26
(mm)
1.3
0.1
0.4
0.7
0.6
0.2
0
(%)
65
65
65
36
25
25
11

Zonverhoging

/ 26.2°
sun-icon
UV 4
05:17
20:54
Afnemende gibbous maan (216°)
----
07:24

METAR voor Renton (KRNT)

Tijd Voorwaarden Temperatuur/
Dauwpunt
Wind Zicht Weer Wolken Luchtdruk Wijzigen Ruw
MVFR 10°C / 8.9°C variable 0kt 9700m Light Rain 0.25mm precipitation Broken Clouds 2200ft
Overcast 5500ft
1020 - KRNT 261453Z AUTO 00000KT 6SM -RA BKN022 OVC055 10/09 A3011 RMK AO2 SLP201 P0001 60003 T01000089 51008
MVFR 10°C / 8.3°C 140º 4kt 6400m Light Rain 0.51mm precipitation Few Clouds 1700ft
Scattered Clouds 2800ft
Overcast 4100ft
1019 - KRNT 261353Z AUTO 14004KT 4SM -RA FEW017 SCT028 OVC041 10/08 A3010 RMK AO2 SLP199 P0002 T01000083
MVFR 10.6°C / 7.2°C 170º 3kt 9700m Light Rain 0.13mm precipitation Broken Clouds 2400ft
Overcast 3300ft
- KRNT 261305Z AUTO 17003KT 6SM -RA BKN024 OVC033 11/07 A3010 RMK AO2 P0000 T01060072
VFR 11.1°C / 6.7°C 180º 6kt >10km - Few Clouds 2500ft
Broken Clouds 3100ft
Overcast 4600ft
- KRNT 261241Z AUTO 18006KT 8SM FEW025 BKN031 OVC046 11/07 A3009 RMK AO2 T01110067
MVFR 11.1°C / 6.7°C 170º 6kt >10km - Overcast 2300ft 1019 - KRNT 261153Z AUTO 17006KT 9SM OVC023 11/07 A3009 RMK AO2 SLP193 T01110067 10117 20111 53001
MVFR 11.1°C / 6.1°C 160º 5kt >10km - Overcast 2200ft 1019 - KRNT 261053Z AUTO 16005KT 9SM OVC022 11/06 A3008 RMK AO2 SLP192 T01110061
MVFR 11.1°C / 6.7°C 170º 7kt >10km - Overcast 2600ft 1019 - KRNT 260953Z AUTO 17007KT 9SM OVC026 11/07 A3009 RMK AO2 SLP193 T01110067
MVFR 11.1°C / 6.1°C 170º 6kt >10km - Overcast 2400ft 1019 - KRNT 260853Z AUTO 17006KT 9SM OVC024 11/06 A3009 RMK AO2 SLP192 T01110061 53003
MVFR 11.1°C / 6.1°C 190º 6kt Gust 15kt >10km - Overcast 2500ft 1019 - KRNT 260753Z AUTO 19006G15KT 9SM OVC025 11/06 A3008 RMK AO2 SLP191 T01110061 401610094
MVFR 11.7°C / 6.1°C 190º 4kt >10km - Broken Clouds 2600ft
Overcast 5000ft
- KRNT 260703Z AUTO 19004KT 9SM BKN026 OVC050 12/06 A3008 RMK AO2 T01170061
MVFR 11.1°C / 6.1°C 220º 6kt >10km - Broken Clouds 2600ft
Broken Clouds 5500ft
Overcast 7500ft
1018 - KRNT 260553Z AUTO 22006KT 9SM BKN026 BKN055 OVC075 11/06 A3008 RMK AO2 SLP189 T01110061 10139 20111 51008
VFR 11.7°C / 6.1°C 200º 6kt >10km - Scattered Clouds 2600ft
Overcast 5500ft
- KRNT 260541Z AUTO 20006KT 7SM SCT026 OVC055 12/06 A3007 RMK AO2 T01170061
MVFR 11.7°C / 6.1°C 220º 6kt >10km - Broken Clouds 2700ft
Overcast 4900ft
- KRNT 260507Z AUTO 22006KT 7SM BKN027 OVC049 12/06 A3007 RMK AO2 T01170061
VFR 11.7°C / 6.1°C 210º 8kt Gust 15kt >10km - Few Clouds 2600ft
Overcast 4700ft
1018 - KRNT 260453Z AUTO 21008G15KT 7SM FEW026 OVC047 12/06 A3007 RMK AO2 SLP187 T01170061
MVFR 11.7°C / 6.1°C 200º 7kt 8000m - Overcast 3800ft 1018 - KRNT 260353Z AUTO 20007KT 5SM OVC038 12/06 A3005 RMK AO2 SLP181 T01170061
MVFR 12.2°C / 5.6°C 210º 7kt 8000m - Broken Clouds 5000ft
Broken Clouds 8000ft
Overcast 11000ft
1017 - KRNT 260253Z AUTO 21007KT 5SM BKN050 BKN080 OVC110 12/06 A3005 RMK AO2 SLP179 T01220056 51007
VFR 12.8°C / 5.6°C 6kt 9700m - Overcast 6000ft 1017 - KRNT 260153Z VRB06KT 6SM OVC060 13/06 A3004 RMK AO2 SLP178 T01280056
VFR 13.3°C / 5°C 200º 11kt Gust 20kt 9700m - Overcast 5000ft 1017 - KRNT 260053Z 20011G20KT 6SM OVC050 13/05 A3003 RMK AO2 SLP175 T01330050
VFR 13.3°C / 4.4°C 210º 9kt Gust 26kt 9700m - Few Clouds 4600ft
Overcast 9500ft
1017 - KRNT 252353Z 21009G26KT 6SM FEW046 OVC095 13/04 A3002 RMK AO2 PK WND 20026/2347 SLP172 T01330044 10161 20128 53018
VFR 14.4°C / 4.4°C 190º 11kt Gust 19kt 9700m - Few Clouds 4100ft
Overcast 7000ft
1016 - KRNT 252253Z 19011G19KT 6SM FEW041 OVC070 14/04 A3001 RMK AO2 SLP165 T01440044
VFR 14.4°C / 3.9°C 200º variable 170º to 230º 10kt Gust 21kt 9700m - Overcast 6500ft 1015 - KRNT 252153Z 20010G21KT 170V230 6SM OVC065 14/04 A2998 RMK AO2 SLP158 T01440039
VFR 15°C / 3.9°C 210º 11kt Gust 22kt 9700m - Few Clouds 4800ft
Broken Clouds 6000ft
1015 - KRNT 252053Z 21011G22KT 6SM FEW048 BKN060 15/04 A2997 RMK AO2 SLP153 T01500039 51010
VFR 15.6°C / 4.4°C 190º 13kt Gust 22kt >10km - Few Clouds 4600ft 1015 - KRNT 251953Z 19013G22KT 9SM FEW046 16/04 A2996 RMK AO2 PK WND 21026/1900 SLP151 T01560044
VFR 13.3°C / 4.4°C 180º 13kt Gust 24kt >10km - Scattered Clouds 4000ft
Overcast 4700ft
1014 - KRNT 251853Z 18013G24KT 7SM SCT040 OVC047 13/04 A2995 RMK AO2 SLP146 T01330044

MVFR

10°C / 8.9°C

[Meer]
Wind variable 0kt
Zicht 9700m
Weer Light Rain 0.25mm precipitation
Wolken Broken Clouds 2200ft
Overcast 5500ft
Luchtdruk 1020
Wijzigen -
Ruw KRNT 261453Z AUTO 00000KT 6SM -RA BKN022 OVC055 10/09 A3011 RMK AO2 SLP201 P0001 60003 T01000089 51008

MVFR

10°C / 8.3°C

[Meer]
Wind 140º 4kt
Zicht 6400m
Weer Light Rain 0.51mm precipitation
Wolken Few Clouds 1700ft
Scattered Clouds 2800ft
Overcast 4100ft
Luchtdruk 1019
Wijzigen -
Ruw KRNT 261353Z AUTO 14004KT 4SM -RA FEW017 SCT028 OVC041 10/08 A3010 RMK AO2 SLP199 P0002 T01000083

MVFR

10.6°C / 7.2°C

[Meer]
Wind 170º 3kt
Zicht 9700m
Weer Light Rain 0.13mm precipitation
Wolken Broken Clouds 2400ft
Overcast 3300ft
Luchtdruk
Wijzigen -
Ruw KRNT 261305Z AUTO 17003KT 6SM -RA BKN024 OVC033 11/07 A3010 RMK AO2 P0000 T01060072

VFR

11.1°C / 6.7°C

[Meer]
Wind 180º 6kt
Zicht >10km
Weer -
Wolken Few Clouds 2500ft
Broken Clouds 3100ft
Overcast 4600ft
Luchtdruk
Wijzigen -
Ruw KRNT 261241Z AUTO 18006KT 8SM FEW025 BKN031 OVC046 11/07 A3009 RMK AO2 T01110067

MVFR

11.1°C / 6.7°C

[Meer]
Wind 170º 6kt
Zicht >10km
Weer -
Wolken Overcast 2300ft
Luchtdruk 1019
Wijzigen -
Ruw KRNT 261153Z AUTO 17006KT 9SM OVC023 11/07 A3009 RMK AO2 SLP193 T01110067 10117 20111 53001

MVFR

11.1°C / 6.1°C

[Meer]
Wind 160º 5kt
Zicht >10km
Weer -
Wolken Overcast 2200ft
Luchtdruk 1019
Wijzigen -
Ruw KRNT 261053Z AUTO 16005KT 9SM OVC022 11/06 A3008 RMK AO2 SLP192 T01110061

MVFR

11.1°C / 6.7°C

[Meer]
Wind 170º 7kt
Zicht >10km
Weer -
Wolken Overcast 2600ft
Luchtdruk 1019
Wijzigen -
Ruw KRNT 260953Z AUTO 17007KT 9SM OVC026 11/07 A3009 RMK AO2 SLP193 T01110067

MVFR

11.1°C / 6.1°C

[Meer]
Wind 170º 6kt
Zicht >10km
Weer -
Wolken Overcast 2400ft
Luchtdruk 1019
Wijzigen -
Ruw KRNT 260853Z AUTO 17006KT 9SM OVC024 11/06 A3009 RMK AO2 SLP192 T01110061 53003

MVFR

11.1°C / 6.1°C

[Meer]
Wind 190º 6kt Gust 15kt
Zicht >10km
Weer -
Wolken Overcast 2500ft
Luchtdruk 1019
Wijzigen -
Ruw KRNT 260753Z AUTO 19006G15KT 9SM OVC025 11/06 A3008 RMK AO2 SLP191 T01110061 401610094

MVFR

11.7°C / 6.1°C

[Meer]
Wind 190º 4kt
Zicht >10km
Weer -
Wolken Broken Clouds 2600ft
Overcast 5000ft
Luchtdruk
Wijzigen -
Ruw KRNT 260703Z AUTO 19004KT 9SM BKN026 OVC050 12/06 A3008 RMK AO2 T01170061

MVFR

11.1°C / 6.1°C

[Meer]
Wind 220º 6kt
Zicht >10km
Weer -
Wolken Broken Clouds 2600ft
Broken Clouds 5500ft
Overcast 7500ft
Luchtdruk 1018
Wijzigen -
Ruw KRNT 260553Z AUTO 22006KT 9SM BKN026 BKN055 OVC075 11/06 A3008 RMK AO2 SLP189 T01110061 10139 20111 51008

VFR

11.7°C / 6.1°C

[Meer]
Wind 200º 6kt
Zicht >10km
Weer -
Wolken Scattered Clouds 2600ft
Overcast 5500ft
Luchtdruk
Wijzigen -
Ruw KRNT 260541Z AUTO 20006KT 7SM SCT026 OVC055 12/06 A3007 RMK AO2 T01170061

MVFR

11.7°C / 6.1°C

[Meer]
Wind 220º 6kt
Zicht >10km
Weer -
Wolken Broken Clouds 2700ft
Overcast 4900ft
Luchtdruk
Wijzigen -
Ruw KRNT 260507Z AUTO 22006KT 7SM BKN027 OVC049 12/06 A3007 RMK AO2 T01170061

VFR

11.7°C / 6.1°C

[Meer]
Wind 210º 8kt Gust 15kt
Zicht >10km
Weer -
Wolken Few Clouds 2600ft
Overcast 4700ft
Luchtdruk 1018
Wijzigen -
Ruw KRNT 260453Z AUTO 21008G15KT 7SM FEW026 OVC047 12/06 A3007 RMK AO2 SLP187 T01170061

MVFR

11.7°C / 6.1°C

[Meer]
Wind 200º 7kt
Zicht 8000m
Weer -
Wolken Overcast 3800ft
Luchtdruk 1018
Wijzigen -
Ruw KRNT 260353Z AUTO 20007KT 5SM OVC038 12/06 A3005 RMK AO2 SLP181 T01170061

MVFR

12.2°C / 5.6°C

[Meer]
Wind 210º 7kt
Zicht 8000m
Weer -
Wolken Broken Clouds 5000ft
Broken Clouds 8000ft
Overcast 11000ft
Luchtdruk 1017
Wijzigen -
Ruw KRNT 260253Z AUTO 21007KT 5SM BKN050 BKN080 OVC110 12/06 A3005 RMK AO2 SLP179 T01220056 51007

VFR

12.8°C / 5.6°C

[Meer]
Wind 6kt
Zicht 9700m
Weer -
Wolken Overcast 6000ft
Luchtdruk 1017
Wijzigen -
Ruw KRNT 260153Z VRB06KT 6SM OVC060 13/06 A3004 RMK AO2 SLP178 T01280056

VFR

13.3°C / 5°C

[Meer]
Wind 200º 11kt Gust 20kt
Zicht 9700m
Weer -
Wolken Overcast 5000ft
Luchtdruk 1017
Wijzigen -
Ruw KRNT 260053Z 20011G20KT 6SM OVC050 13/05 A3003 RMK AO2 SLP175 T01330050

VFR

13.3°C / 4.4°C

[Meer]
Wind 210º 9kt Gust 26kt
Zicht 9700m
Weer -
Wolken Few Clouds 4600ft
Overcast 9500ft
Luchtdruk 1017
Wijzigen -
Ruw KRNT 252353Z 21009G26KT 6SM FEW046 OVC095 13/04 A3002 RMK AO2 PK WND 20026/2347 SLP172 T01330044 10161 20128 53018

VFR

14.4°C / 4.4°C

[Meer]
Wind 190º 11kt Gust 19kt
Zicht 9700m
Weer -
Wolken Few Clouds 4100ft
Overcast 7000ft
Luchtdruk 1016
Wijzigen -
Ruw KRNT 252253Z 19011G19KT 6SM FEW041 OVC070 14/04 A3001 RMK AO2 SLP165 T01440044

VFR

14.4°C / 3.9°C

[Meer]
Wind 200º variable 170º to 230º 10kt Gust 21kt
Zicht 9700m
Weer -
Wolken Overcast 6500ft
Luchtdruk 1015
Wijzigen -
Ruw KRNT 252153Z 20010G21KT 170V230 6SM OVC065 14/04 A2998 RMK AO2 SLP158 T01440039

VFR

15°C / 3.9°C

[Meer]
Wind 210º 11kt Gust 22kt
Zicht 9700m
Weer -
Wolken Few Clouds 4800ft
Broken Clouds 6000ft
Luchtdruk 1015
Wijzigen -
Ruw KRNT 252053Z 21011G22KT 6SM FEW048 BKN060 15/04 A2997 RMK AO2 SLP153 T01500039 51010

VFR

15.6°C / 4.4°C

[Meer]
Wind 190º 13kt Gust 22kt
Zicht >10km
Weer -
Wolken Few Clouds 4600ft
Luchtdruk 1015
Wijzigen -
Ruw KRNT 251953Z 19013G22KT 9SM FEW046 16/04 A2996 RMK AO2 PK WND 21026/1900 SLP151 T01560044

VFR

13.3°C / 4.4°C

[Meer]
Wind 180º 13kt Gust 24kt
Zicht >10km
Weer -
Wolken Scattered Clouds 4000ft
Overcast 4700ft
Luchtdruk 1014
Wijzigen -
Ruw KRNT 251853Z 18013G24KT 7SM SCT040 OVC047 13/04 A2995 RMK AO2 SLP146 T01330044

rainNOW: Regenvoorspelling voor Renton en omgeving (25km radius)

0.1 mm
0.1 mm
0.1 mm
0.1 mm
0.1 mm
0.1 mm
0.1 mm
0.1 mm
0.1 mm
0.1 mm
0.1 mm
0.1 mm

Radar en neerslag nowcast voor Renton

Motregen
Licht
Matig
Zwaar
Zeer zwaar
Hagel

De locatiemarkering is op Renton geplaatst . Deze animatie toont de neerslagradar voor het geselecteerde tijdvak, alsmede een 1h voorspelling. Oranje kruisjes geven de bliksem aan. Gegevens verstrekt door nowcast.de (beschikbaar in de VS, Europa en Australië). Motregen of lichte sneeuwval kan onzichtbaar zijn voor de radar. De neerslagintensiteit heeft een kleurcode, gaande van turkoois tot rood.

Huidige satellietbeelden voor Renton, Verenigde Staten

De locatiemarkering is op Renton geplaatst. [Meer]

Het realtime satellietbeeld combineert zichtbaar licht overdag met infraroodstraling 's nachts. 's Nachts is het beeld niet donker, omdat infraroodstraling temperatuurverschillen kan waarnemen. Helaas zijn lage wolken en mist moeilijk te onderscheiden van grondtemperaturen en kunnen dus 's nachts bijna onzichtbaar zijn. Meteosat-satellietbeelden voor Europa worden elke 5 minuten in real time bijgewerkt. De beelden van GOES-16/GOES-17 (Noord- en Zuid-Amerika) en Himawari (Azië) worden om de 10 minuten bijgewerkt.

De neerslag wordt geschat met behulp van radar en satellieten. Neerslagschattingen van satellieten zijn 's nachts minder nauwkeurig dan overdag.

© 2024 meteoblue, NOAA Satellites GOES-16 and EUMETSAT. Bliksemgegevens verstrekt door nowcast.

Could not load TAF data: FEEDPACKAGE_TAF: could not Find TAF for station: KRNT
Terug naar boven
×
Hallo daar,
Het lijkt erop dat u een advertentieblokker gebruikt.

Reclame is van essentieel belang om onze gratis website te onderhouden met unieke details en nauwkeurigheid.

Gelieve www.meteoblue.com te whitelisten op uw ad blocker of overweeg één van onze producten:

Heeft u al een abonnement?
Dan kunt u inloggen.